createdAt,value
2019-06-01T00:00:49.449Z,83.35
2019-06-01T00:03:21.591Z,83.53
2019-06-01T00:05:52.780Z,83.41
2019-06-01T00:08:28.292Z,83.08
2019-06-01T00:11:02.517Z,82.50
2019-06-01T00:13:36.585Z,82.68
2019-06-01T00:16:10.186Z,82.54
2019-06-01T00:18:43.989Z,83.00
2019-06-01T00:21:17.612Z,83.02
2019-06-01T00:23:53.266Z,82.74
2019-06-01T00:26:25.545Z,82.75
2019-06-01T00:28:57.746Z,82.73
2019-06-01T00:31:30.753Z,82.66
2019-06-01T00:34:03.729Z,82.36
2019-06-01T00:36:39.188Z,82.54
2019-06-01T00:39:11.842Z,81.79
2019-06-01T00:41:45.760Z,83.03
2019-06-01T00:44:18.801Z,83.03
2019-06-01T00:46:52.771Z,83.23
2019-06-01T00:49:24.707Z,83.41
2019-06-01T00:51:57.820Z,83.87
2019-06-01T00:54:30.617Z,84.39
2019-06-01T00:57:02.769Z,84.17
2019-06-01T00:59:36.713Z,84.38
2019-06-01T01:02:11.001Z,84.51
2019-06-01T01:04:44.296Z,85.14
2019-06-01T01:07:15.974Z,84.91
2019-06-01T01:09:49.138Z,85.66
2019-06-01T01:12:20.338Z,85.56
2019-06-01T01:14:53.379Z,85.23
2019-06-01T01:17:28.665Z,87.16
2019-06-01T01:20:00.895Z,88.89
2019-06-01T01:22:36.642Z,89.62
2019-06-01T01:25:10.393Z,89.85
2019-06-01T01:27:44.949Z,89.44
2019-06-01T01:30:17.883Z,89.24
2019-06-01T01:32:53.248Z,88.94
2019-06-01T01:35:24.965Z,88.31
2019-06-01T01:37:59.850Z,88.91
2019-06-01T01:40:32.259Z,88.52
2019-06-01T01:43:04.824Z,89.36
2019-06-01T01:45:36.988Z,89.37
2019-06-01T01:48:09.785Z,88.81
2019-06-01T01:50:44.620Z,88.92
2019-06-01T01:53:16.961Z,89.11
2019-06-01T01:55:52.926Z,87.81
2019-06-01T01:58:26.084Z,88.22
2019-06-01T02:01:16.954Z,89.42
2019-06-01T02:03:36.078Z,90.96
2019-06-01T02:06:09.167Z,90.41
2019-06-01T02:08:41.146Z,89.89
2019-06-01T02:11:16.500Z,88.43
2019-06-01T02:13:51.587Z,87.80
2019-06-01T02:16:25.541Z,87.19
2019-06-01T02:18:58.780Z,86.17
2019-06-01T02:21:34.808Z,85.50
2019-06-01T02:24:08.269Z,85.42
2019-06-01T02:26:41.599Z,85.23
2019-06-01T02:29:15.520Z,85.41
2019-06-01T02:31:48.381Z,85.04
2019-06-01T02:34:21.356Z,84.73
2019-06-01T02:36:56.505Z,84.46
2019-06-01T02:39:28.186Z,84.82
2019-06-01T02:42:01.300Z,84.82
2019-06-01T02:44:35.446Z,86.97
2019-06-01T02:47:09.243Z,86.77
2019-06-01T02:49:41.379Z,87.39
2019-06-01T02:52:14.224Z,87.61
2019-06-01T02:54:46.344Z,87.70
2019-06-01T02:57:18.313Z,88.09
2019-06-01T02:59:50.509Z,87.83
2019-06-01T03:02:23.386Z,88.94
2019-06-01T03:04:57.064Z,89.40
2019-06-01T03:07:31.717Z,88.85
2019-06-01T03:10:05.403Z,88.57
2019-06-01T03:12:44.511Z,88.40
2019-06-01T03:15:17.417Z,88.12
2019-06-01T03:17:51.959Z,88.02
2019-06-01T03:20:28.959Z,88.36
2019-06-01T03:23:04.045Z,87.82
2019-06-01T03:25:35.867Z,88.34
2019-06-01T03:28:09.074Z,87.97
2019-06-01T03:30:45.602Z,87.64
2019-06-01T03:33:18.342Z,88.43
2019-06-01T03:35:54.606Z,89.93
2019-06-01T03:38:28.689Z,89.68
2019-06-01T03:41:02.128Z,89.85
2019-06-01T03:43:36.205Z,89.63
2019-06-01T03:46:08.751Z,88.66
2019-06-01T03:48:43.075Z,88.33
2019-06-01T03:51:15.477Z,88.09
2019-06-01T03:53:47.621Z,87.43
2019-06-01T03:56:21.533Z,87.56
2019-06-01T03:58:58.979Z,87.71
2019-06-01T04:01:32.867Z,88.10
2019-06-01T04:04:07.141Z,88.84
2019-06-01T04:07:20.554Z,88.90
2019-06-01T04:09:52.823Z,90.12
2019-06-01T04:12:25.799Z,90.59
2019-06-01T04:14:57.781Z,91.11
2019-06-01T04:17:32.854Z,90.98
2019-06-01T04:20:05.980Z,90.43
2019-06-01T04:22:39.494Z,90.56
2019-06-01T04:25:12.306Z,90.77
2019-06-01T04:27:43.774Z,90.94
2019-06-01T04:30:21.787Z,90.73
2019-06-01T04:32:56.500Z,90.60
2019-06-01T04:35:30.775Z,90.24
2019-06-01T04:38:05.176Z,90.33
2019-06-01T04:40:40.387Z,89.49
2019-06-01T04:43:14.190Z,89.13
2019-06-01T04:45:45.948Z,88.72
2019-06-01T04:48:19.911Z,88.57
2019-06-01T04:50:53.900Z,88.00
2019-06-01T04:53:27.636Z,87.37
2019-06-01T04:55:58.896Z,87.17
2019-06-01T04:58:32.472Z,87.10
2019-06-01T05:01:05.343Z,86.64
2019-06-01T05:03:37.895Z,86.40
2019-06-01T05:06:11.226Z,86.12
2019-06-01T05:08:43.896Z,86.06
2019-06-01T05:11:16.195Z,85.75
2019-06-01T05:13:48.972Z,85.67
2019-06-01T05:16:25.093Z,85.42
2019-06-01T05:18:57.540Z,85.18
2019-06-01T05:21:32.702Z,84.76
2019-06-01T05:24:04.292Z,85.42
2019-06-01T05:26:36.987Z,85.36
2019-06-01T05:29:11.660Z,85.17
2019-06-01T05:31:43.268Z,84.92
2019-06-01T05:34:18.387Z,84.54
2019-06-01T05:36:52.401Z,84.81
2019-06-01T05:39:25.129Z,84.30
2019-06-01T05:41:57.414Z,85.49
2019-06-01T05:44:30.069Z,85.99
2019-06-01T05:47:02.170Z,84.88
2019-06-01T05:49:36.578Z,84.47
2019-06-01T05:52:10.370Z,84.60
2019-06-01T05:54:43.469Z,83.70
2019-06-01T05:57:17.395Z,82.06
2019-06-01T05:59:51.032Z,81.10
2019-06-01T06:02:26.313Z,82.03
2019-06-01T06:05:01.931Z,82.76
2019-06-01T06:07:35.310Z,81.86
2019-06-01T06:10:08.999Z,81.25
2019-06-01T06:12:41.263Z,80.99
2019-06-01T06:15:15.629Z,80.80
2019-06-01T06:17:48.375Z,80.24
2019-06-01T06:20:23.987Z,79.56
2019-06-01T06:22:55.388Z,79.08
2019-06-01T06:25:31.776Z,78.21
2019-06-01T06:28:05.877Z,79.07
2019-06-01T06:30:37.416Z,77.77
2019-06-01T06:33:13.221Z,76.87
2019-06-01T06:35:47.408Z,77.69
2019-06-01T06:38:21.938Z,77.30
2019-06-01T06:40:54.737Z,75.74
2019-06-01T06:43:32.953Z,76.18
2019-06-01T06:46:04.431Z,75.41
2019-06-01T06:48:38.505Z,74.24
2019-06-01T06:51:12.491Z,73.70
2019-06-01T06:53:46.527Z,74.41
2019-06-01T06:56:22.029Z,73.80
2019-06-01T06:58:55.544Z,72.39
2019-06-01T07:01:27.451Z,72.92
2019-06-01T07:04:12.339Z,73.01
2019-06-01T07:06:35.652Z,72.10
2019-06-01T07:09:07.839Z,72.24
2019-06-01T07:11:39.713Z,70.96
2019-06-01T07:14:10.927Z,71.92
2019-06-01T07:16:44.498Z,72.34
2019-06-01T07:19:19.520Z,69.96
2019-06-01T07:21:52.621Z,70.62
2019-06-01T07:24:26.090Z,69.99
2019-06-01T07:27:01.297Z,69.68
2019-06-01T07:29:34.720Z,69.73
2019-06-01T07:32:06.766Z,70.30
2019-06-01T07:34:42.024Z,70.09
2019-06-01T07:37:15.462Z,69.72
2019-06-01T07:39:49.028Z,68.60
2019-06-01T07:42:23.499Z,69.27
2019-06-01T07:44:58.238Z,69.96
2019-06-01T07:47:33.845Z,72.82
2019-06-01T07:50:06.761Z,74.23
2019-06-01T07:52:39.761Z,75.72
2019-06-01T07:55:13.010Z,76.01
2019-06-01T07:57:45.751Z,75.96
2019-06-01T08:00:17.896Z,76.87
2019-06-01T08:02:52.292Z,76.32
2019-06-01T08:05:26.463Z,76.41
2019-06-01T08:07:58.701Z,74.34
2019-06-01T08:10:32.433Z,74.02
2019-06-01T08:13:07.497Z,74.84
2019-06-01T08:15:41.168Z,75.30
2019-06-01T08:18:12.410Z,76.51
2019-06-01T08:20:43.909Z,73.90
2019-06-01T08:23:15.913Z,73.03
2019-06-01T08:25:48.948Z,73.01
2019-06-01T08:28:24.392Z,75.04
2019-06-01T08:30:57.070Z,74.61
2019-06-01T08:33:33.149Z,74.03
2019-06-01T08:36:05.203Z,74.05
2019-06-01T08:38:38.904Z,74.16
2019-06-01T08:41:25.582Z,74.05
2019-06-01T08:43:59.036Z,74.10
2019-06-01T08:46:38.925Z,73.95
2019-06-01T08:49:13.135Z,73.43
2019-06-01T08:51:46.790Z,72.72
2019-06-01T08:54:20.533Z,72.61
2019-06-01T08:56:52.104Z,73.02
2019-06-01T08:59:26.297Z,72.70
2019-06-01T09:02:00.760Z,71.85
2019-06-01T09:04:34.951Z,71.37
2019-06-01T09:07:09.084Z,72.33
2019-06-01T09:09:43.074Z,71.79
2019-06-01T09:12:16.140Z,72.49
2019-06-01T09:14:48.001Z,72.24
2019-06-01T09:17:20.297Z,71.65
2019-06-01T09:19:52.162Z,72.19
2019-06-01T09:22:27.516Z,73.13
2019-06-01T09:25:00.601Z,72.51
2019-06-01T09:27:34.428Z,73.33
2019-06-01T09:30:07.221Z,72.80
2019-06-01T09:32:41.268Z,73.94
2019-06-01T09:35:14.273Z,73.81
2019-06-01T09:37:49.131Z,70.17
2019-06-01T09:40:24.578Z,71.37
2019-06-01T09:42:58.453Z,71.42
2019-06-01T09:45:32.888Z,70.33
2019-06-01T09:48:06.360Z,69.35
2019-06-01T09:50:38.453Z,67.86
2019-06-01T09:53:11.971Z,70.03
2019-06-01T09:55:45.414Z,71.07
2019-06-01T09:58:19.249Z,70.83
2019-06-01T10:00:52.742Z,70.29
2019-06-01T10:03:24.604Z,71.31
2019-06-01T10:06:01.890Z,71.16
2019-06-01T10:08:32.585Z,70.78
2019-06-01T10:11:08.422Z,71.89
2019-06-01T10:13:42.663Z,70.80
2019-06-01T10:16:14.458Z,70.89
2019-06-01T10:18:47.624Z,68.91
2019-06-01T10:21:23.406Z,68.63
2019-06-01T10:23:56.720Z,67.89
2019-06-01T10:26:34.071Z,67.98
2019-06-01T10:29:05.757Z,68.48
2019-06-01T10:31:41.098Z,68.80
2019-06-01T10:34:14.496Z,69.12
2019-06-01T10:36:47.802Z,68.99
2019-06-01T10:39:21.579Z,68.57
2019-06-01T10:41:57.213Z,68.13
2019-06-01T10:44:31.551Z,68.76
2019-06-01T10:47:05.694Z,69.97
2019-06-01T10:49:38.170Z,70.04
2019-06-01T10:52:10.080Z,69.85
2019-06-01T10:54:42.511Z,69.71
2019-06-01T10:57:16.646Z,70.88
2019-06-01T10:59:52.384Z,69.92
2019-06-01T11:02:26.404Z,70.39
2019-06-01T11:04:57.627Z,69.67
2019-06-01T11:07:28.905Z,71.43
2019-06-01T11:10:03.313Z,69.45
2019-06-01T11:12:39.148Z,70.62
2019-06-01T11:15:11.065Z,70.55
2019-06-01T11:17:44.648Z,70.68
2019-06-01T11:20:18.056Z,71.22
2019-06-01T11:22:49.836Z,70.37
2019-06-01T11:25:22.921Z,71.69
2019-06-01T11:27:56.904Z,70.74
2019-06-01T11:30:28.785Z,71.72
2019-06-01T11:33:01.861Z,71.74
2019-06-01T11:35:37.174Z,72.36
2019-06-01T11:38:11.571Z,69.99
2019-06-01T11:40:45.784Z,69.42
2019-06-01T11:43:17.917Z,69.80
2019-06-01T11:45:52.630Z,71.00
2019-06-01T11:48:24.843Z,70.57
2019-06-01T11:50:58.013Z,69.19
2019-06-01T11:53:32.125Z,70.24
2019-06-01T11:56:05.928Z,70.76
2019-06-01T11:58:39.243Z,70.82
2019-06-01T12:01:11.037Z,70.12
2019-06-01T12:03:46.207Z,71.48
2019-06-01T12:06:18.970Z,71.66
2019-06-01T12:09:11.855Z,72.13
2019-06-01T12:11:46.446Z,71.40
2019-06-01T12:14:20.813Z,71.64
2019-06-01T12:16:54.994Z,69.87
2019-06-01T12:19:27.194Z,71.27
2019-06-01T12:22:01.129Z,70.45
2019-06-01T12:24:34.085Z,70.86
2019-06-01T12:27:08.126Z,69.18
2019-06-01T12:29:41.484Z,69.11
2019-06-01T12:32:12.940Z,70.07
2019-06-01T12:34:46.258Z,68.97
2019-06-01T12:37:34.515Z,67.80
2019-06-01T12:39:54.259Z,68.33
2019-06-01T12:42:26.171Z,68.24
2019-06-01T12:45:00.425Z,68.50
2019-06-01T12:47:32.229Z,68.23
2019-06-01T12:50:07.099Z,68.70
2019-06-01T12:52:42.833Z,67.63
2019-06-01T12:55:15.781Z,67.20
2019-06-01T12:57:51.270Z,67.13
2019-06-01T13:00:24.648Z,66.99
2019-06-01T13:03:07.206Z,65.82
2019-06-01T13:05:32.202Z,66.21
2019-06-01T13:08:07.940Z,66.60
2019-06-01T13:10:39.176Z,66.75
2019-06-01T13:13:13.088Z,68.08
2019-06-01T13:15:49.349Z,66.83
2019-06-01T13:18:21.276Z,67.91
2019-06-01T13:20:54.323Z,68.83
2019-06-01T13:23:26.416Z,69.30
2019-06-01T13:25:59.451Z,68.60
2019-06-01T13:28:38.191Z,69.40
2019-06-01T13:31:12.650Z,69.48
2019-06-01T13:33:50.332Z,69.13
2019-06-01T13:36:23.555Z,69.31
2019-06-01T13:38:56.492Z,69.54
2019-06-01T13:41:32.085Z,69.71
2019-06-01T13:44:06.164Z,69.94
2019-06-01T13:46:39.803Z,69.21
2019-06-01T13:49:11.544Z,70.25
2019-06-01T13:51:44.097Z,68.75
2019-06-01T13:54:18.462Z,68.42
2019-06-01T13:56:52.926Z,68.45
2019-06-01T13:59:25.608Z,68.70
2019-06-01T14:01:58.819Z,69.02
2019-06-01T14:04:30.822Z,66.97
2019-06-01T14:07:03.760Z,67.42
2019-06-01T14:09:35.601Z,67.47
2019-06-01T14:12:09.068Z,67.09
2019-06-01T14:14:45.341Z,67.27
2019-06-01T14:17:18.544Z,66.67
2019-06-01T14:19:51.780Z,67.10
2019-06-01T14:22:25.466Z,66.32
2019-06-01T14:25:15.004Z,65.65
2019-06-01T14:27:48.200Z,64.51
2019-06-01T14:30:24.375Z,64.93
2019-06-01T14:32:58.009Z,65.10
2019-06-01T14:35:35.427Z,63.69
2019-06-01T14:38:12.017Z,63.96
2019-06-01T14:40:47.085Z,64.30
2019-06-01T14:43:19.790Z,64.07
2019-06-01T14:45:54.214Z,64.12
2019-06-01T14:48:27.757Z,64.95
2019-06-01T14:51:01.262Z,64.45
2019-06-01T14:53:36.087Z,64.93
2019-06-01T14:56:10.972Z,64.69
2019-06-01T14:58:43.653Z,65.33
2019-06-01T15:01:31.318Z,66.30
2019-06-01T15:03:54.686Z,66.34
2019-06-01T15:06:25.892Z,65.85
2019-06-01T15:09:15.243Z,65.47
2019-06-01T15:11:35.889Z,66.27
2019-06-01T15:14:09.891Z,65.50
2019-06-01T15:16:42.786Z,64.71
2019-06-01T15:19:16.793Z,65.09
2019-06-01T15:21:50.082Z,64.00
2019-06-01T15:24:24.159Z,64.26
2019-06-01T15:26:58.716Z,64.77
2019-06-01T15:29:32.017Z,63.92
2019-06-01T15:32:03.860Z,64.40
2019-06-01T15:34:36.983Z,63.67
2019-06-01T15:37:15.682Z,63.63
2019-06-01T15:39:47.031Z,63.73
2019-06-01T15:42:19.996Z,62.97
2019-06-01T15:44:53.117Z,62.97
2019-06-01T15:47:26.171Z,62.47
2019-06-01T15:50:00.206Z,63.48
2019-06-01T15:52:33.720Z,63.12
2019-06-01T15:55:05.931Z,63.69
2019-06-01T15:57:39.696Z,62.99
2019-06-01T16:00:15.064Z,64.04
2019-06-01T16:02:49.438Z,63.71
2019-06-01T16:05:21.204Z,64.55
2019-06-01T16:07:55.081Z,64.09
2019-06-01T16:10:28.877Z,64.32
2019-06-01T16:13:04.479Z,64.91
2019-06-01T16:15:37.267Z,64.68
2019-06-01T16:18:10.939Z,65.21
2019-06-01T16:20:44.027Z,64.93
2019-06-01T16:23:17.164Z,65.57
2019-06-01T16:26:03.790Z,64.86
2019-06-01T16:28:24.266Z,64.44
2019-06-01T16:30:58.595Z,64.77
2019-06-01T16:33:31.378Z,64.74
2019-06-01T16:36:05.598Z,65.33
2019-06-01T16:38:39.428Z,64.20
2019-06-01T16:41:32.872Z,63.50
2019-06-01T16:44:05.860Z,63.40
2019-06-01T16:46:38.442Z,62.37
2019-06-01T16:49:12.285Z,63.26
2019-06-01T16:51:56.715Z,62.73
2019-06-01T16:54:28.321Z,62.66
2019-06-01T16:57:01.346Z,62.90
2019-06-01T16:59:34.393Z,63.58
2019-06-01T17:02:07.986Z,63.74
2019-06-01T17:04:41.340Z,62.88
2019-06-01T17:07:15.539Z,62.47
2019-06-01T17:09:51.041Z,63.66
2019-06-01T17:12:22.308Z,63.54
2019-06-01T17:14:54.482Z,63.43
2019-06-01T17:17:31.196Z,64.41
2019-06-01T17:20:05.799Z,64.23
2019-06-01T17:22:38.510Z,64.46
2019-06-01T17:25:12.135Z,64.52
2019-06-01T17:27:45.521Z,64.83
2019-06-01T17:30:21.387Z,64.80
2019-06-01T17:32:54.339Z,65.13
2019-06-01T17:35:27.595Z,65.11
2019-06-01T17:38:00.781Z,65.15
2019-06-01T17:40:38.470Z,65.95
2019-06-01T17:43:13.152Z,66.16
2019-06-01T17:45:46.595Z,66.01
2019-06-01T17:48:25.568Z,66.79
2019-06-01T17:50:53.563Z,66.83
2019-06-01T17:53:29.326Z,66.65
2019-06-01T17:56:01.937Z,66.72
2019-06-01T17:58:35.769Z,66.68
2019-06-01T18:01:09.956Z,66.78
2019-06-01T18:03:45.150Z,67.18
2019-06-01T18:06:18.589Z,67.55
2019-06-01T18:08:53.523Z,67.78
2019-06-01T18:11:25.503Z,68.10
2019-06-01T18:13:59.738Z,68.22
2019-06-01T18:16:32.238Z,68.47
2019-06-01T18:19:04.641Z,69.40
2019-06-01T18:21:40.410Z,69.24
2019-06-01T18:24:14.101Z,69.17
2019-06-01T18:26:47.940Z,69.53
2019-06-01T18:29:21.847Z,69.54
2019-06-01T18:31:54.978Z,70.46
2019-06-01T18:34:27.030Z,69.58
2019-06-01T18:37:01.234Z,69.67
2019-06-01T18:39:32.818Z,70.33
2019-06-01T18:42:06.289Z,70.48
2019-06-01T18:44:40.245Z,72.04
2019-06-01T18:47:13.929Z,71.79
2019-06-01T18:49:46.160Z,71.70
2019-06-01T18:52:19.845Z,71.82
2019-06-01T18:54:51.817Z,72.57
2019-06-01T18:57:23.953Z,72.79
2019-06-01T18:59:57.457Z,73.07
2019-06-01T19:02:29.958Z,73.01
2019-06-01T19:05:04.836Z,73.29
2019-06-01T19:07:40.725Z,73.88
2019-06-01T19:10:15.798Z,74.37
2019-06-01T19:12:49.090Z,73.90
2019-06-01T19:15:28.490Z,74.61
2019-06-01T19:17:56.973Z,74.12
2019-06-01T19:20:33.290Z,75.07
2019-06-01T19:23:06.616Z,74.73
2019-06-01T19:25:38.030Z,76.18
2019-06-01T19:28:10.883Z,75.73
2019-06-01T19:30:46.859Z,75.64
2019-06-01T19:33:19.669Z,75.83
2019-06-01T19:35:53.995Z,76.05
2019-06-01T19:38:30.489Z,76.91
2019-06-01T19:41:04.820Z,77.13
2019-06-01T19:43:38.570Z,76.52
2019-06-01T19:46:11.954Z,76.24
2019-06-01T19:48:44.387Z,76.81
2019-06-01T19:51:18.794Z,75.89
2019-06-01T19:53:52.803Z,76.09
2019-06-01T19:56:27.487Z,76.50
2019-06-01T19:59:01.464Z,77.10
2019-06-01T20:01:35.832Z,77.22
2019-06-01T20:04:10.430Z,76.76
2019-06-01T20:06:44.371Z,76.88
2019-06-01T20:09:19.302Z,76.68
2019-06-01T20:12:01.313Z,77.28
2019-06-01T20:14:26.772Z,77.75
2019-06-01T20:16:59.451Z,78.26
2019-06-01T20:19:35.019Z,78.66
2019-06-01T20:22:07.503Z,78.97
2019-06-01T20:24:41.357Z,78.66
2019-06-01T20:27:13.469Z,78.95
2019-06-01T20:29:47.414Z,78.84
2019-06-01T20:32:20.511Z,79.32
2019-06-01T20:34:54.685Z,79.40
2019-06-01T20:37:29.995Z,79.05
2019-06-01T20:40:02.531Z,78.85
2019-06-01T20:42:37.200Z,78.83
2019-06-01T20:45:10.871Z,78.51
2019-06-01T20:48:06.733Z,78.60
2019-06-01T20:50:39.365Z,78.37
2019-06-01T20:53:13.217Z,78.53
2019-06-01T20:55:45.524Z,78.86
2019-06-01T20:58:19.542Z,79.55
2019-06-01T21:00:54.168Z,79.88
2019-06-01T21:03:25.386Z,80.05
2019-06-01T21:05:57.590Z,79.42
2019-06-01T21:08:33.053Z,79.70
2019-06-01T21:11:07.490Z,79.13
2019-06-01T21:13:41.634Z,79.36
2019-06-01T21:16:18.071Z,79.50
2019-06-01T21:18:52.805Z,79.21
2019-06-01T21:21:24.957Z,78.63
2019-06-01T21:23:58.319Z,78.82
2019-06-01T21:26:32.681Z,78.34
2019-06-01T21:29:04.556Z,78.81
2019-06-01T21:31:37.639Z,78.38
2019-06-01T21:34:13.509Z,78.81
2019-06-01T21:36:45.893Z,78.78
2019-06-01T21:39:46.707Z,78.73
2019-06-01T21:42:19.640Z,79.48
2019-06-01T21:44:55.444Z,80.06
2019-06-01T21:47:28.399Z,80.08
2019-06-01T21:50:01.755Z,79.95
2019-06-01T21:52:35.091Z,80.06
2019-06-01T21:55:08.684Z,80.44
2019-06-01T21:57:40.836Z,81.26
2019-06-01T22:00:20.521Z,82.10
2019-06-01T22:02:52.698Z,82.83
2019-06-01T22:05:27.222Z,82.40
2019-06-01T22:07:59.860Z,82.34
2019-06-01T22:10:33.559Z,82.53
2019-06-01T22:13:18.339Z,82.77
2019-06-01T22:15:40.772Z,82.78
2019-06-01T22:18:14.590Z,82.25
2019-06-01T22:20:45.804Z,81.61
2019-06-01T22:23:21.906Z,81.32
2019-06-01T22:25:54.917Z,81.28
2019-06-01T22:28:26.981Z,80.94
2019-06-01T22:31:01.108Z,81.23
2019-06-01T22:33:33.975Z,82.83
2019-06-01T22:36:06.750Z,83.35
2019-06-01T22:38:41.697Z,83.74
2019-06-01T22:41:12.920Z,83.55
2019-06-01T22:43:47.113Z,81.93
2019-06-01T22:46:22.600Z,82.67
2019-06-01T22:48:57.156Z,82.81
2019-06-01T22:53:55.380Z,82.16
2019-06-01T22:56:27.940Z,81.88
2019-06-01T22:59:01.138Z,81.82
2019-06-01T23:01:33.519Z,81.09
2019-06-01T23:04:05.052Z,80.22
2019-06-01T23:06:38.156Z,79.66
2019-06-01T23:09:12.220Z,80.38
2019-06-01T23:11:46.672Z,79.99
2019-06-01T23:14:23.363Z,79.85
2019-06-01T23:16:57.502Z,79.92
2019-06-01T23:19:30.522Z,79.93
2019-06-01T23:22:04.242Z,80.51
2019-06-01T23:24:35.555Z,80.38
2019-06-01T23:27:07.092Z,80.05
2019-06-01T23:29:38.281Z,79.03
2019-06-01T23:32:15.197Z,78.69
2019-06-01T23:34:50.428Z,78.59
2019-06-01T23:37:26.681Z,79.02
2019-06-01T23:39:59.233Z,78.58
2019-06-01T23:42:33.415Z,77.71
2019-06-01T23:45:06.647Z,78.15
2019-06-01T23:47:38.341Z,78.86
2019-06-01T23:50:11.554Z,79.09
2019-06-01T23:52:45.383Z,78.82
2019-06-01T23:55:17.363Z,78.98
2019-06-01T23:57:51.425Z,78.77
